Time;durP1;ratioP1;P1;durP2;ratioP2;P2;SDS_P1;SDS_P2;PMS_P1;PMS_P2;Temp;Humidity;BMP_temperature;BMP_pressure;BME280_temperature;BME280_humidity;BME280_pressure;Samples;Min_cycle;Max_cycle;Signal;HPM_P1;HPM_P2
2020/12/17 00:00:29;;;;;;;73.95;33.72;;;;;;;8.63;70.44;94621.09;5002727;28;20045;-80
2020/12/17 00:02:55;;;;;;;58.63;30.13;;;;;;;8.61;71.03;94622.38;4995346;28;20070;-80
2020/12/17 00:05:20;;;;;;;55.65;28.90;;;;;;;8.58;71.03;94617.63;4987408;28;20113;-80
2020/12/17 00:07:47;;;;;;;49.67;26.27;;;;;;;8.56;70.90;94615.25;5016025;28;20492;-80
2020/12/17 00:10:13;;;;;;;52.42;27.83;;;;;;;8.58;70.82;94617.63;5004012;28;20097;-79
2020/12/17 00:12:41;;;;;;;51.65;25.08;;;;;;;8.60;70.82;94624.22;5004078;28;20048;-80
2020/12/17 00:15:14;;;;;;;54.78;24.83;;;;;;;8.60;70.72;94621.59;5004416;28;20059;-80
2020/12/17 00:17:44;;;;;;;48.17;26.08;;;;;;;8.59;71.00;94619.22;5001890;28;20069;-80
2020/12/17 00:20:12;;;;;;;47.15;25.08;;;;;;;8.67;70.56;94631.91;5006321;28;20050;-80
2020/12/17 00:22:39;;;;;;;49.35;23.65;;;;;;;8.66;70.50;94627.69;5004362;28;20026;-80
2020/12/17 00:25:06;;;;;;;44.17;23.77;;;;;;;8.65;70.66;94626.88;5004896;28;20034;-80
2020/12/17 00:27:32;;;;;;;54.35;25.17;;;;;;;8.70;70.21;94623.47;5005287;28;20045;-80
2020/12/17 00:29:58;;;;;;;48.70;24.13;;;;;;;8.55;70.42;94605.00;5003183;28;20091;-80
2020/12/17 00:32:24;;;;;;;52.75;24.90;;;;;;;8.70;70.46;94626.13;5002603;28;20069;-80
2020/12/17 00:34:50;;;;;;;54.28;25.65;;;;;;;8.64;71.21;94622.69;5003997;28;20471;-80
2020/12/17 00:37:15;;;;;;;50.97;26.67;;;;;;;8.69;71.07;94630.63;5006210;28;20482;-80
2020/12/17 00:39:41;;;;;;;60.13;28.05;;;;;;;8.63;70.86;94615.81;4988849;28;20129;-80
2020/12/17 00:42:06;;;;;;;56.75;27.92;;;;;;;8.71;70.58;94630.34;5007051;28;20618;-79
2020/12/17 00:44:32;;;;;;;60.88;28.67;;;;;;;8.69;70.70;94624.56;4991248;28;20687;-80
2020/12/17 00:46:58;;;;;;;62.85;26.77;;;;;;;8.69;70.37;94624.56;5004106;28;20394;-80
2020/12/17 00:49:23;;;;;;;68.07;26.20;;;;;;;8.72;70.65;94628.50;5006159;28;20120;-80
2020/12/17 00:51:49;;;;;;;65.05;25.05;;;;;;;8.69;70.89;94625.34;5003347;28;20050;-80
2020/12/17 00:54:14;;;;;;;71.30;26.63;;;;;;;8.71;70.68;94625.06;5003370;28;20050;-80
2020/12/17 00:56:46;;;;;;;62.97;28.75;;;;;;;8.61;71.17;94617.13;5002833;28;20447;-79
2020/12/17 00:59:14;;;;;;;59.28;27.75;;;;;;;8.64;71.17;94616.63;5004878;28;20167;-80
2020/12/17 01:01:40;;;;;;;61.63;26.30;;;;;;;8.71;70.98;94627.72;5006266;28;20053;-80
2020/12/17 01:04:05;;;;;;;58.47;25.70;;;;;;;8.72;70.97;94618.75;5004887;28;20360;-80
2020/12/17 01:06:31;;;;;;;55.15;24.83;;;;;;;8.73;70.76;94624.81;4999832;28;20553;-80
2020/12/17 01:08:56;;;;;;;54.13;26.45;;;;;;;8.68;70.61;94626.41;5003746;28;20053;-80
2020/12/17 01:11:27;;;;;;;54.92;27.30;;;;;;;8.68;71.01;94625.59;5003530;28;20394;-80
2020/12/17 01:13:52;;;;;;;51.30;24.25;;;;;;;8.71;71.07;94622.44;4999378;28;20128;-80
2020/12/17 01:16:18;;;;;;;53.63;26.42;;;;;;;8.69;70.81;94624.56;5006092;28;20060;-79
2020/12/17 01:18:43;;;;;;;53.55;25.35;;;;;;;8.69;71.02;94629.81;5001085;28;20100;-80
2020/12/17 01:21:09;;;;;;;61.78;26.75;;;;;;;8.69;70.91;94627.19;5004057;28;20042;-80
2020/12/17 01:23:34;;;;;;;77.40;32.42;;;;;;;8.61;70.80;94614.47;5001982;28;20498;-80
2020/12/17 01:26:00;;;;;;;67.22;28.15;;;;;;;8.64;71.08;94621.91;5004219;28;20103;-80
2020/12/17 01:28:25;;;;;;;82.22;29.98;;;;;;;8.60;71.29;94616.31;5005771;28;20140;-79
2020/12/17 01:30:51;;;;;;;64.07;28.67;;;;;;;8.64;71.61;94632.44;5003048;28;20038;-80
2020/12/17 01:33:18;;;;;;;85.50;32.80;;;;;;;8.63;71.67;94625.56;5003310;28;20042;-80
2020/12/17 01:35:44;;;;;;;77.55;32.30;;;;;;;8.67;71.81;94627.44;5002642;28;20103;-80
2020/12/17 01:38:10;;;;;;;77.43;32.42;;;;;;;8.72;71.75;94624.03;5015567;28;20038;-80
2020/12/17 01:40:35;;;;;;;89.25;34.38;;;;;;;8.74;71.65;94616.69;4985997;28;20501;-80
2020/12/17 01:43:01;;;;;;;130.60;31.25;;;;;;;8.64;71.91;94606.88;5002542;28;20045;-80
2020/12/17 01:45:26;;;;;;;69.10;30.33;;;;;;;8.62;72.01;94605.53;5004383;28;20111;-79
2020/12/17 01:47:53;;;;;;;77.60;29.95;;;;;;;8.64;71.88;94606.09;5000622;28;20042;-79
2020/12/17 01:50:19;;;;;;;74.82;28.75;;;;;;;8.67;71.63;94610.84;5002272;28;20376;-79
2020/12/17 01:52:45;;;;;;;87.30;29.60;;;;;;;8.69;71.53;94614.81;5018499;28;20108;-79
2020/12/17 01:55:10;;;;;;;82.18;27.10;;;;;;;8.67;71.67;94605.56;5006019;28;20124;-79
2020/12/17 01:57:44;;;;;;;75.32;29.13;;;;;;;8.64;71.64;94612.16;5004659;28;20037;-79
2020/12/17 02:00:12;;;;;;;68.28;27.63;;;;;;;8.64;71.35;94606.88;5002669;28;20049;-79
2020/12/17 02:02:40;;;;;;;70.50;29.05;;;;;;;8.69;71.17;94611.38;5015188;28;20600;-79
2020/12/17 02:05:06;;;;;;;77.32;28.90;;;;;;;8.62;71.58;94600.25;5003767;28;20585;-79
2020/12/17 02:07:32;;;;;;;70.40;31.58;;;;;;;8.55;71.83;94594.44;5005097;28;20108;-79
2020/12/17 02:09:59;;;;;;;79.80;32.47;;;;;;;8.54;71.76;94595.50;5002441;28;20557;-79
2020/12/17 02:12:41;;;;;;;80.60;35.85;;;;;;;8.60;71.47;94599.75;5003481;28;20080;-79
2020/12/17 02:15:06;;;;;;;79.63;35.50;;;;;;;8.58;71.55;94589.47;5002191;28;20041;-79
2020/12/17 02:17:32;;;;;;;75.70;32.40;;;;;;;8.65;71.39;94597.09;5000426;28;20045;-79
2020/12/17 02:19:57;;;;;;;70.97;31.55;;;;;;;8.70;71.35;94603.19;5004627;28;20034;-79
2020/12/17 02:22:23;;;;;;;69.78;28.40;;;;;;;8.68;71.19;94602.69;5003950;28;20509;-78
2020/12/17 02:24:48;;;;;;;65.90;26.95;;;;;;;8.56;71.20;94585.47;5001584;28;20048;-78
2020/12/17 02:27:14;;;;;;;63.33;27.17;;;;;;;8.67;71.19;94597.66;5004017;28;20041;-78
2020/12/17 02:29:39;;;;;;;58.53;27.77;;;;;;;8.67;71.06;94602.94;5002056;28;20045;-79
2020/12/17 02:32:05;;;;;;;58.83;26.58;;;;;;;8.58;71.22;94575.50;5004010;28;20433;-78
2020/12/17 02:34:30;;;;;;;46.72;23.40;;;;;;;8.70;70.92;94589.22;5003358;28;20049;-79
2020/12/17 02:36:56;;;;;;;51.47;25.73;;;;;;;8.71;70.91;94596.09;4984973;28;20441;-79
2020/12/17 02:39:21;;;;;;;48.92;24.60;;;;;;;8.76;70.68;94593.47;4981654;28;20043;-79
2020/12/17 02:41:47;;;;;;;53.38;24.25;;;;;;;8.74;70.54;94595.59;4990269;28;20073;-79
2020/12/17 02:44:12;;;;;;;52.55;26.25;;;;;;;8.74;70.50;94585.06;5002856;28;20510;-79
2020/12/17 02:46:38;;;;;;;61.42;27.30;;;;;;;8.78;70.42;94596.66;5001798;28;20498;-79
2020/12/17 02:49:03;;;;;;;55.63;28.80;;;;;;;8.75;70.75;94585.84;5002303;28;20045;-79
2020/12/17 02:51:29;;;;;;;63.58;32.28;;;;;;;8.76;70.65;94601.38;5002883;28;20034;-79
2020/12/17 02:53:54;;;;;;;67.97;35.33;;;;;;;8.69;70.88;94587.66;5015322;28;20289;-79
2020/12/17 02:56:21;;;;;;;65.22;32.28;;;;;;;8.70;70.68;94581.31;5001437;28;20045;-79
2020/12/17 02:58:47;;;;;;;62.50;29.38;;;;;;;8.70;70.62;94576.84;5002240;28;20053;-79
2020/12/17 03:01:12;;;;;;;63.95;28.63;;;;;;;8.84;70.83;94597.47;5003834;28;20040;-79
2020/12/17 03:03:38;;;;;;;63.05;30.00;;;;;;;8.75;70.74;94586.63;4995383;28;20043;-79
2020/12/17 03:06:05;;;;;;;66.70;30.58;;;;;;;8.81;70.83;94585.59;4993165;28;20041;-79
2020/12/17 03:08:31;;;;;;;58.28;28.15;;;;;;;8.82;71.02;94596.94;5001208;28;20533;-79
2020/12/17 03:10:56;;;;;;;76.13;30.30;;;;;;;8.76;71.04;94592.69;5001482;28;20591;-79
2020/12/17 03:13:22;;;;;;;61.92;30.00;;;;;;;8.82;71.61;94596.94;5002662;28;20017;-79
2020/12/17 03:15:48;;;;;;;61.85;28.40;;;;;;;8.80;71.95;94593.75;4983573;28;20038;-79
2020/12/17 03:18:14;;;;;;;71.72;27.90;;;;;;;8.77;72.02;94597.69;4995444;28;20244;-78
2020/12/17 03:20:40;;;;;;;69.25;27.08;;;;;;;8.76;72.06;94595.31;5000844;28;20607;-79
2020/12/17 03:23:05;;;;;;;86.80;36.83;;;;;;;8.59;71.99;94572.59;5002664;28;20494;-79
2020/12/17 03:25:30;;;;;;;88.65;32.67;;;;;;;8.77;71.72;94597.69;5003631;28;20041;-79
2020/12/17 03:27:56;;;;;;;81.88;32.22;;;;;;;8.72;72.05;94597.69;4982356;28;20301;-79
2020/12/17 03:30:21;;;;;;;88.72;36.00;;;;;;;8.75;72.35;94605.06;4994126;28;20073;-79
2020/12/17 03:32:47;;;;;;;68.55;29.20;;;;;;;8.78;72.37;94607.19;5000483;28;20073;-79
2020/12/17 03:35:12;;;;;;;77.10;33.45;;;;;;;8.77;72.85;94610.88;5002340;28;20030;-79
2020/12/17 03:37:38;;;;;;;75.05;29.85;;;;;;;8.70;72.50;94605.84;5003603;28;20080;-79
2020/12/17 03:40:04;;;;;;;67.95;29.13;;;;;;;8.72;72.85;94621.41;5000662;28;20503;-79
2020/12/17 03:42:30;;;;;;;78.00;28.35;;;;;;;8.72;72.78;94618.75;5000871;28;20044;-79
2020/12/17 03:44:55;;;;;;;95.05;38.80;;;;;;;8.70;72.81;94621.66;5001514;28;20061;-79
2020/12/17 03:47:20;;;;;;;110.30;44.17;;;;;;;8.72;72.84;94623.25;5002649;28;20042;-79
2020/12/17 03:49:46;;;;;;;100.95;41.78;;;;;;;8.65;72.94;94620.81;5005949;28;20025;-79
2020/12/17 03:52:11;;;;;;;80.53;33.03;;;;;;;8.54;72.95;94603.41;5006210;28;20068;-79
2020/12/17 03:54:37;;;;;;;108.70;36.92;;;;;;;8.68;73.02;94622.97;5004932;28;20038;-79
2020/12/17 03:57:03;;;;;;;97.53;34.58;;;;;;;8.64;73.32;94611.34;5002731;28;20517;-79
2020/12/17 03:59:28;;;;;;;71.50;32.05;;;;;;;8.75;72.86;94618.25;5004479;28;20132;-79
2020/12/17 04:01:54;;;;;;;72.88;29.67;;;;;;;8.73;73.08;94614.28;5004627;28;20065;-79
2020/12/17 04:04:19;;;;;;;64.25;29.52;;;;;;;8.78;72.64;94614.31;5006802;28;20101;-79
2020/12/17 04:06:45;;;;;;;85.75;35.15;;;;;;;8.78;72.41;94609.84;5005700;28;20052;-79
2020/12/17 04:09:10;;;;;;;65.82;26.73;;;;;;;8.81;72.16;94605.88;5004800;28;20042;-79
2020/12/17 04:11:36;;;;;;;65.72;27.48;;;;;;;8.84;72.12;94611.44;5002597;28;24288;-79
2020/12/17 04:14:01;;;;;;;69.20;27.92;;;;;;;8.88;72.29;94609.09;4996909;28;20064;-79
2020/12/17 04:16:27;;;;;;;92.05;33.70;;;;;;;8.87;72.16;94610.94;5006536;28;20055;-79
2020/12/17 04:18:52;;;;;;;84.65;31.00;;;;;;;8.87;71.91;94618.03;5004370;28;20695;-79
2020/12/17 04:21:18;;;;;;;71.07;27.00;;;;;;;8.83;72.35;94612.50;5006013;28;20092;-79
2020/12/17 04:23:43;;;;;;;65.40;25.48;;;;;;;8.79;72.12;94598.25;5003627;28;20487;-79
2020/12/17 04:26:13;;;;;;;67.72;27.88;;;;;;;8.87;71.87;94616.19;5005049;28;20053;-79
2020/12/17 04:28:39;;;;;;;61.13;25.48;;;;;;;8.85;71.51;94605.09;5006522;28;20018;-79
2020/12/17 04:31:05;;;;;;;64.85;25.05;;;;;;;8.89;71.35;94608.84;5004525;28;20037;-79
2020/12/17 04:33:30;;;;;;;63.53;27.13;;;;;;;8.86;71.42;94606.69;5015485;28;20614;-79
2020/12/17 04:35:56;;;;;;;60.85;26.00;;;;;;;8.89;71.21;94608.84;4994268;28;20033;-79
2020/12/17 04:38:21;;;;;;;77.68;31.13;;;;;;;8.89;71.05;94603.56;5001303;28;20137;-79
2020/12/17 04:40:47;;;;;;;73.05;30.38;;;;;;;8.82;71.05;94592.47;5006350;28;20044;-78
2020/12/17 04:43:12;;;;;;;73.22;29.50;;;;;;;8.94;71.13;94603.56;5006850;28;20502;-78
2020/12/17 04:45:39;;;;;;;75.72;28.88;;;;;;;8.76;71.19;94585.56;5004659;28;20037;-78
2020/12/17 04:48:06;;;;;;;70.13;27.27;;;;;;;8.92;71.59;94610.94;4991535;28;20679;-78
2020/12/17 04:50:33;;;;;;;77.95;30.92;;;;;;;8.91;71.72;94611.19;4998664;28;20586;-78
2020/12/17 04:53:02;;;;;;;69.55;29.80;;;;;;;8.92;71.78;94610.16;4987545;28;20353;-78
2020/12/17 04:55:29;;;;;;;83.53;33.38;;;;;;;8.94;71.97;94608.81;5005776;28;20017;-79
2020/12/17 04:57:59;;;;;;;97.82;40.40;;;;;;;8.91;71.85;94606.72;5001936;28;20049;-79
2020/12/17 05:00:26;;;;;;;87.63;37.72;;;;;;;8.89;71.99;94610.69;4999784;28;20046;-79
2020/12/17 05:02:55;;;;;;;83.32;37.60;;;;;;;8.86;71.90;94609.34;5000145;28;20606;-79
2020/12/17 05:05:23;;;;;;;107.78;41.20;;;;;;;8.92;71.79;94621.50;5003519;28;20174;-79
2020/12/17 05:07:48;;;;;;;92.18;44.28;;;;;;;8.88;71.92;94612.50;5003426;28;20026;-79
2020/12/17 05:10:13;;;;;;;86.03;39.50;;;;;;;8.81;71.95;94611.94;4985705;28;20700;-79
2020/12/17 05:12:39;;;;;;;77.85;34.45;;;;;;;8.88;72.02;94614.34;5000112;28;20049;-78
2020/12/17 05:15:05;;;;;;;77.07;35.28;;;;;;;8.87;71.56;94610.13;5003676;28;20072;-79
2020/12/17 05:17:31;;;;;;;86.22;38.08;;;;;;;8.87;71.54;94616.19;5002389;28;20049;-79
2020/12/17 05:19:57;;;;;;;79.78;31.75;;;;;;;8.87;71.50;94604.84;5004350;28;20519;-79
2020/12/17 05:22:23;;;;;;;74.65;30.33;;;;;;;8.82;71.49;94597.72;5003700;28;20053;-79
2020/12/17 05:24:49;;;;;;;73.30;33.03;;;;;;;8.92;71.34;94603.03;5003382;28;20033;-79
2020/12/17 05:27:15;;;;;;;94.07;38.38;;;;;;;8.93;71.27;94620.44;5004596;28;20099;-77
2020/12/17 05:29:42;;;;;;;77.50;31.95;;;;;;;8.95;71.22;94614.91;5003368;28;20409;-79
2020/12/17 05:32:09;;;;;;;85.15;31.33;;;;;;;8.94;71.14;94616.72;5003143;28;20045;-79
2020/12/17 05:34:35;;;;;;;76.25;32.70;;;;;;;9.02;71.05;94628.66;5004800;28;20285;-79
2020/12/17 05:37:01;;;;;;;70.60;29.15;;;;;;;9.02;71.12;94618.09;5000522;28;20034;-79
2020/12/17 05:39:28;;;;;;;80.65;32.35;;;;;;;9.00;71.27;94620.19;5004450;28;20068;-79
2020/12/17 05:41:55;;;;;;;78.28;34.92;;;;;;;9.03;71.02;94617.84;5001213;28;20096;-79
2020/12/17 05:44:25;;;;;;;71.10;33.53;;;;;;;9.05;71.13;94628.91;5002207;28;20048;-79
2020/12/17 05:46:51;;;;;;;85.57;35.05;;;;;;;9.08;71.23;94620.50;4995803;28;20026;-79
2020/12/17 05:49:20;;;;;;;94.80;36.45;;;;;;;9.12;71.10;94624.19;5004734;28;20036;-79
2020/12/17 05:51:47;;;;;;;80.65;36.13;;;;;;;9.10;70.95;94633.41;5003135;28;20033;-79
2020/12/17 05:54:22;;;;;;;78.15;35.00;;;;;;;9.10;71.34;94630.78;5001601;28;20056;-79
2020/12/17 05:56:49;;;;;;;95.45;37.00;;;;;;;9.02;71.41;94629.44;5000178;28;20035;-79
2020/12/17 05:59:22;;;;;;;89.97;32.95;;;;;;;9.06;71.85;94643.69;5003522;28;20458;-79
2020/12/17 06:01:48;;;;;;;106.53;35.55;;;;;;;9.01;72.06;94637.59;4999755;28;20892;-79
2020/12/17 06:04:16;;;;;;;116.28;33.10;;;;;;;9.07;72.35;94642.66;4997079;28;20026;-79
2020/12/17 06:06:48;;;;;;;105.22;34.22;;;;;;;9.06;72.72;94651.59;5019810;28;20077;-79
2020/12/17 06:09:20;;;;;;;105.45;35.42;;;;;;;9.05;72.84;94649.22;5003490;28;20038;-79
2020/12/17 06:11:46;;;;;;;109.35;35.58;;;;;;;8.92;72.94;94642.59;5002893;28;20030;-79
2020/12/17 06:14:13;;;;;;;121.55;33.72;;;;;;;9.04;72.79;94658.97;5004014;28;20093;-79
2020/12/17 06:16:42;;;;;;;146.50;37.90;;;;;;;8.98;72.95;94651.31;5006151;28;20430;-79
2020/12/17 06:19:10;;;;;;;144.63;37.05;;;;;;;8.98;73.23;94660.00;5004148;28;20502;-79
2020/12/17 06:21:39;;;;;;;121.68;36.85;;;;;;;8.96;73.21;94646.28;5003634;28;20050;-79
2020/12/17 06:24:06;;;;;;;152.48;36.90;;;;;;;9.01;73.49;94651.56;5003303;28;20037;-79
2020/12/17 06:26:38;;;;;;;123.45;36.10;;;;;;;8.96;73.58;94635.72;5004187;28;20096;-79
2020/12/17 06:29:21;;;;;;;111.80;36.78;;;;;;;8.99;73.06;94647.63;5006307;28;20398;-79
2020/12/17 06:31:58;;;;;;;120.60;35.00;;;;;;;8.97;73.18;94647.88;5003220;28;20146;-79
2020/12/17 06:34:36;;;;;;;103.72;38.67;;;;;;;9.00;73.30;94651.81;4985320;28;20042;-79
2020/12/17 06:37:03;;;;;;;126.63;37.75;;;;;;;9.01;73.24;94654.22;5003803;28;20473;-79
2020/12/17 06:39:29;;;;;;;107.55;35.67;;;;;;;9.07;72.79;94657.66;5005163;28;20567;-81
2020/12/17 06:41:55;;;;;;;103.68;34.47;;;;;;;9.05;72.91;94655.28;4992129;28;20043;-79
2020/12/17 06:44:35;;;;;;;102.85;36.45;;;;;;;9.10;72.99;94655.31;4984972;28;20034;-79
2020/12/17 06:47:03;;;;;;;101.72;35.20;;;;;;;9.05;72.83;94646.56;4984476;28;20578;-79
2020/12/17 06:49:31;;;;;;;119.10;37.05;;;;;;;9.00;72.56;94651.81;5005939;28;20026;-79
2020/12/17 06:52:04;;;;;;;111.88;38.83;;;;;;;9.10;72.68;94659.78;5001627;28;20510;-78
2020/12/17 06:54:34;;;;;;;100.90;38.60;;;;;;;9.09;72.72;94647.63;4994949;28;20054;-78
2020/12/17 06:57:06;;;;;;;104.57;35.53;;;;;;;9.10;72.89;94660.56;4982442;28;20046;-79
2020/12/17 06:59:32;;;;;;;120.20;37.47;;;;;;;9.06;72.81;94651.59;4989585;28;20050;-79
2020/12/17 07:01:58;;;;;;;105.82;35.42;;;;;;;9.12;72.68;94653.22;5002979;28;20032;-80
2020/12/17 07:04:33;;;;;;;103.90;38.47;;;;;;;9.19;72.61;94665.38;5004612;28;20041;-80
2020/12/17 07:07:12;;;;;;;110.32;35.15;;;;;;;9.22;72.43;94664.84;5003248;28;20096;-80
2020/12/17 07:09:39;;;;;;;100.90;35.33;;;;;;;9.18;72.45;94666.41;5004294;28;20129;-80
2020/12/17 07:12:04;;;;;;;92.50;35.63;;;;;;;9.26;72.16;94665.91;5002412;28;20049;-80
2020/12/17 07:14:30;;;;;;;99.82;35.13;;;;;;;9.22;71.86;94664.84;5003243;28;20149;-80
2020/12/17 07:17:06;;;;;;;84.18;33.95;;;;;;;9.18;71.77;94669.84;5004211;28;20675;-80
2020/12/17 07:19:42;;;;;;;55.42;25.73;;;;;;;9.12;71.32;94663.75;5003591;28;20026;-80
2020/12/17 07:22:25;;;;;;;51.40;24.95;;;;;;;8.96;71.07;94654.19;5002459;28;20503;-80
2020/12/17 07:24:53;;;;;;;55.55;26.63;;;;;;;9.04;71.20;94660.84;5003471;28;20041;-79
2020/12/17 07:27:24;;;;;;;58.85;29.17;;;;;;;9.09;71.43;94658.19;5004031;28;20084;-80
2020/12/17 07:29:59;;;;;;;52.85;25.30;;;;;;;9.12;71.12;94668.25;5003592;28;20046;-80
2020/12/17 07:32:35;;;;;;;52.13;27.35;;;;;;;9.22;71.16;94670.13;4996751;28;20158;-80
2020/12/17 07:35:22;;;;;;;57.08;29.05;;;;;;;9.23;71.09;94666.44;4984495;28;20088;-80
2020/12/17 07:37:53;;;;;;;61.53;30.00;;;;;;;9.28;71.22;94674.38;5003354;28;20387;-80
2020/12/17 07:40:41;;;;;;;57.90;25.98;;;;;;;9.31;70.71;94668.56;5004864;28;20687;-80
2020/12/17 07:43:12;;;;;;;56.65;27.45;;;;;;;9.32;70.36;94654.31;5003211;28;20058;-80
2020/12/17 07:45:49;;;;;;;63.50;28.40;;;;;;;9.41;70.33;94663.31;5003034;28;20603;-80
2020/12/17 07:48:42;;;;;;;55.45;29.05;;;;;;;9.47;70.17;94668.38;4999829;28;20052;-80
2020/12/17 07:51:14;;;;;;;59.47;24.55;;;;;;;9.50;70.43;94673.09;4997445;28;20502;-80
2020/12/17 07:53:48;;;;;;;55.00;25.90;;;;;;;9.59;70.09;94670.75;4996170;28;20046;-80
2020/12/17 07:56:14;;;;;;;57.38;27.00;;;;;;;9.61;69.93;94671.28;4989080;28;20406;-80
2020/12/17 07:58:40;;;;;;;60.40;26.48;;;;;;;9.58;69.93;94669.16;5003024;28;20038;-80
2020/12/17 08:01:07;;;;;;;53.17;26.85;;;;;;;9.65;70.06;94677.63;5003246;28;20046;-80
2020/12/17 08:03:43;;;;;;;60.92;28.95;;;;;;;9.73;70.05;94682.38;5003165;28;20042;-80
2020/12/17 08:06:10;;;;;;;64.40;27.90;;;;;;;9.77;69.63;94686.13;5003012;28;20604;-80
2020/12/17 08:08:36;;;;;;;58.60;27.52;;;;;;;9.81;69.59;94689.81;5002897;28;20038;-80
2020/12/17 08:11:02;;;;;;;66.75;30.60;;;;;;;9.83;69.49;94686.88;5001359;28;20045;-80
2020/12/17 08:13:28;;;;;;;70.50;31.67;;;;;;;9.82;69.51;94688.72;5004679;28;20036;-80
2020/12/17 08:16:00;;;;;;;71.53;30.88;;;;;;;9.88;69.72;94689.53;5018573;28;20046;-80
2020/12/17 08:18:31;;;;;;;68.97;31.25;;;;;;;9.86;69.98;94689.03;5003361;28;20054;-80
2020/12/17 08:21:08;;;;;;;77.43;33.53;;;;;;;9.87;69.92;94691.38;5001434;28;20037;-80
2020/12/17 08:23:36;;;;;;;77.28;32.30;;;;;;;9.91;69.49;94694.31;4996880;28;20038;-80
2020/12/17 08:26:04;;;;;;;72.60;33.15;;;;;;;9.94;69.22;94697.22;4987183;28;20677;-80
2020/12/17 08:28:34;;;;;;;75.68;34.95;;;;;;;9.91;69.33;94697.75;5004052;28;20030;-80
2020/12/17 08:31:12;;;;;;;89.25;41.72;;;;;;;9.92;69.60;94691.38;5002209;28;20104;-80
2020/12/17 08:33:43;;;;;;;76.25;36.17;;;;;;;9.96;69.54;94692.47;5006576;28;20088;-80
2020/12/17 08:36:11;;;;;;;89.13;41.33;;;;;;;9.93;69.78;94692.97;5005985;28;20042;-80
2020/12/17 08:38:37;;;;;;;95.07;40.58;;;;;;;9.94;70.21;94691.13;5003635;28;20131;-80
2020/12/17 08:41:05;;;;;;;130.63;64.80;;;;;;;9.93;70.23;94692.97;5006808;28;20053;-80
2020/12/17 08:43:42;;;;;;;105.95;42.63;;;;;;;9.94;70.44;94693.78;5007213;28;20093;-80
2020/12/17 08:46:13;;;;;;;98.10;40.28;;;;;;;9.96;70.10;94692.47;5005595;28;20046;-80
2020/12/17 08:48:40;;;;;;;95.70;38.22;;;;;;;9.94;70.17;94694.56;5015583;28;20038;-80
2020/12/17 08:51:09;;;;;;;95.35;39.50;;;;;;;9.93;70.24;94687.69;4996088;28;20038;-80
2020/12/17 08:53:41;;;;;;;101.03;45.10;;;;;;;9.94;70.22;94688.50;5004149;28;20494;-80
2020/12/17 08:56:18;;;;;;;103.72;41.83;;;;;;;10.02;70.81;94684.56;5006263;28;20050;-80
2020/12/17 08:58:49;;;;;;;103.10;43.65;;;;;;;9.93;70.73;94673.72;5019408;28;20095;-80
2020/12/17 09:01:22;;;;;;;103.05;44.50;;;;;;;9.91;70.72;94662.63;5006547;28;20037;-80
2020/12/17 09:03:48;;;;;;;100.90;42.95;;;;;;;10.06;70.38;94677.69;5005890;28;20129;-80
2020/12/17 09:06:14;;;;;;;106.18;42.03;;;;;;;10.02;70.40;94669.47;5004872;28;20060;-80
2020/12/17 09:08:40;;;;;;;115.88;46.03;;;;;;;10.04;70.29;94679.78;5004318;28;20424;-80
2020/12/17 09:11:26;;;;;;;115.88;45.47;;;;;;;9.90;70.61;94650.47;5005309;28;20046;-80
2020/12/17 09:14:04;;;;;;;114.68;47.13;;;;;;;10.04;70.58;94656.81;5004584;28;20109;-80
2020/12/17 09:16:31;;;;;;;107.82;46.50;;;;;;;10.17;70.32;94671.38;5007281;28;20360;-80
2020/12/17 09:18:58;;;;;;;120.70;50.47;;;;;;;10.20;69.92;94669.00;5004183;28;20137;-80
2020/12/17 09:21:24;;;;;;;111.90;46.60;;;;;;;10.29;69.64;94675.34;5002297;28;20165;-80
2020/12/17 09:23:55;;;;;;;112.88;47.25;;;;;;;10.23;69.63;94665.84;5003053;28;20081;-80
2020/12/17 09:26:21;;;;;;;110.60;47.90;;;;;;;10.23;69.67;94667.69;5008157;28;20041;-79
2020/12/17 09:29:02;;;;;;;127.22;51.45;;;;;;;10.31;69.26;94669.81;5003704;28;20037;-80
2020/12/17 09:31:35;;;;;;;114.25;51.83;;;;;;;10.31;69.07;94659.25;5021340;28;20021;-80
2020/12/17 09:34:13;;;;;;;112.70;49.85;;;;;;;10.32;69.21;94669.53;5018403;28;20103;-81
2020/12/17 09:36:41;;;;;;;120.18;52.08;;;;;;;10.30;69.44;94661.09;4988247;28;20118;-78
2020/12/17 09:39:11;;;;;;;121.90;52.80;;;;;;;10.30;69.46;94660.28;4997745;28;20080;-80
2020/12/17 09:41:37;;;;;;;115.05;49.88;;;;;;;10.30;69.27;94661.09;5003208;28;20034;-81
2020/12/17 09:44:03;;;;;;;126.15;53.63;;;;;;;10.36;69.37;94660.00;5000834;28;20030;-80
2020/12/17 09:46:45;;;;;;;136.07;56.47;;;;;;;10.36;69.26;94653.94;4984996;28;20033;-80
2020/12/17 09:49:28;;;;;;;125.25;54.58;;;;;;;10.45;69.24;94659.47;5005284;28;20049;-79
2020/12/17 09:52:16;;;;;;;124.72;52.70;;;;;;;10.44;69.24;94666.63;5004831;28;20038;-79
2020/12/17 09:54:43;;;;;;;132.35;53.97;;;;;;;10.45;68.54;94662.13;5016155;28;20046;-79
2020/12/17 09:57:11;;;;;;;128.80;55.47;;;;;;;10.50;69.09;94659.47;4984377;28;20041;-79
2020/12/17 09:59:38;;;;;;;131.95;55.13;;;;;;;10.50;68.77;94662.91;4991388;28;20054;-79
2020/12/17 10:02:05;;;;;;;124.45;55.88;;;;;;;10.58;68.58;94665.00;5020540;28;20052;-79
2020/12/17 10:04:31;;;;;;;129.60;59.10;;;;;;;10.62;68.28;94660.78;5004958;28;20048;-79
2020/12/17 10:06:57;;;;;;;126.13;56.08;;;;;;;10.70;68.33;94660.22;5002881;28;20717;-79
2020/12/17 10:09:23;;;;;;;144.60;61.95;;;;;;;10.68;68.43;94651.78;5004303;28;20042;-79
2020/12/17 10:11:51;;;;;;;137.73;57.85;;;;;;;10.73;68.02;94653.63;5003471;28;20121;-80
2020/12/17 10:14:18;;;;;;;139.93;60.38;;;;;;;10.76;67.97;94658.34;4997885;28;20100;-79
2020/12/17 10:16:44;;;;;;;140.07;60.38;;;;;;;10.78;67.90;94651.75;4983604;28;20026;-79
2020/12/17 10:19:10;;;;;;;130.52;58.40;;;;;;;10.76;67.60;94642.50;5006417;28;20036;-79
2020/12/17 10:21:36;;;;;;;130.80;59.95;;;;;;;10.81;67.59;94650.41;5005576;28;20096;-79
2020/12/17 10:24:03;;;;;;;150.30;61.95;;;;;;;10.76;67.42;94637.19;4999920;28;20041;-79
2020/12/17 10:26:29;;;;;;;129.73;61.28;;;;;;;10.80;67.63;94635.59;5005017;28;20501;-80
2020/12/17 10:28:55;;;;;;;125.30;60.20;;;;;;;10.81;67.61;94640.63;5005453;28;20076;-79
2020/12/17 10:31:21;;;;;;;130.80;61.92;;;;;;;10.80;67.85;94649.63;5006334;28;20018;-79
2020/12/17 10:33:46;;;;;;;124.72;59.47;;;;;;;10.78;67.74;94635.09;4996621;28;20041;-79
2020/12/17 10:36:12;;;;;;;141.60;64.10;;;;;;;10.89;67.80;94646.44;5005287;28;20083;-80
2020/12/17 10:38:38;;;;;;;139.55;61.72;;;;;;;10.91;67.72;94645.09;5003394;28;20044;-80
2020/12/17 10:41:04;;;;;;;130.63;63.55;;;;;;;10.86;67.63;94637.97;5004782;28;20445;-79
2020/12/17 10:43:29;;;;;;;145.57;65.40;;;;;;;10.89;67.57;94636.66;5004449;28;20057;-79
2020/12/17 10:45:55;;;;;;;131.57;65.13;;;;;;;10.93;67.61;94640.34;5005565;28;20152;-79
2020/12/17 10:48:21;;;;;;;135.07;63.15;;;;;;;11.00;67.26;94640.03;4990109;28;20041;-80
2020/12/17 10:50:48;;;;;;;129.30;63.03;;;;;;;10.98;67.79;94627.09;4992156;28;20034;-79
2020/12/17 10:53:15;;;;;;;128.90;60.97;;;;;;;10.99;67.82;94631.34;5003182;28;20037;-79
2020/12/17 10:55:41;;;;;;;135.30;65.03;;;;;;;11.04;67.88;94636.59;5003837;28;20029;-79
2020/12/17 10:58:07;;;;;;;143.35;63.60;;;;;;;11.02;68.10;94624.69;4981927;28;20046;-79
2020/12/17 11:00:33;;;;;;;139.23;64.65;;;;;;;11.02;68.03;94624.69;4998008;28;20045;-79
2020/12/17 11:02:59;;;;;;;144.30;65.03;;;;;;;10.97;67.65;94622.06;5002195;28;20510;-79
2020/12/17 11:05:24;;;;;;;150.50;68.15;;;;;;;11.06;67.05;94625.72;5005380;28;20504;-79
2020/12/17 11:07:49;;;;;;;145.27;66.60;;;;;;;11.00;67.33;94624.97;5003248;28;20483;-79
2020/12/17 11:10:15;;;;;;;147.98;68.78;;;;;;;11.08;67.50;94631.56;5004476;28;21027;-79
2020/12/17 11:12:40;;;;;;;143.25;67.13;;;;;;;11.07;67.36;94611.44;5004011;28;20034;-79
2020/12/17 11:15:06;;;;;;;133.77;66.15;;;;;;;11.10;67.47;94618.84;5003246;28;20060;-79
2020/12/17 11:17:31;;;;;;;137.40;65.72;;;;;;;11.13;67.19;94610.38;5003320;28;20037;-79
2020/12/17 11:19:57;;;;;;;125.72;65.03;;;;;;;11.14;67.05;94611.97;5004694;28;20470;-79
2020/12/17 11:22:23;;;;;;;135.35;63.35;;;;;;;11.21;66.66;94609.78;5006282;28;20100;-79
2020/12/17 11:24:49;;;;;;;152.00;69.38;;;;;;;11.23;66.62;94607.69;5004827;28;20116;-80